createdAt,value
2023-02-11T00:00:53.435Z,2.56
2023-02-11T00:03:36.922Z,2.48
2023-02-11T00:06:10.593Z,2.79
2023-02-11T00:08:45.005Z,2.60
2023-02-11T00:11:29.849Z,3.13
2023-02-11T00:14:22.518Z,3.04
2023-02-11T00:16:58.335Z,2.92
2023-02-11T00:19:27.479Z,2.68
2023-02-11T00:21:54.413Z,2.78
2023-02-11T00:24:30.118Z,2.65
2023-02-11T00:27:04.707Z,2.72
2023-02-11T00:29:41.972Z,2.81
2023-02-11T00:32:12.163Z,3.07
2023-02-11T00:34:48.523Z,2.88
2023-02-11T00:37:26.139Z,2.84
2023-02-11T00:40:19.681Z,2.71
2023-02-11T00:43:01.366Z,2.53
2023-02-11T00:45:38.236Z,2.65
2023-02-11T00:48:05.397Z,2.86
2023-02-11T00:50:38.475Z,3.02
2023-02-11T00:53:22.444Z,3.02
2023-02-11T00:56:04.097Z,2.92
2023-02-11T00:58:31.400Z,2.67
2023-02-11T01:01:01.326Z,2.85
2023-02-11T01:03:34.771Z,2.93
2023-02-11T01:06:06.176Z,2.72
2023-02-11T01:08:58.231Z,2.75
2023-02-11T01:11:26.406Z,2.73
2023-02-11T01:13:54.233Z,2.46
2023-02-11T01:16:21.890Z,2.30
2023-02-11T01:18:55.215Z,2.60
2023-02-11T01:21:34.785Z,2.46
2023-02-11T01:24:11.808Z,2.26
2023-02-11T01:26:39.578Z,2.22
2023-02-11T01:29:16.720Z,2.27
2023-02-11T01:31:49.049Z,2.26
2023-02-11T01:34:19.455Z,2.11
2023-02-11T01:36:46.387Z,2.16
2023-02-11T01:39:16.222Z,2.21
2023-02-11T01:41:42.987Z,1.97
2023-02-11T01:44:37.422Z,1.99
2023-02-11T01:47:07.520Z,2.03
2023-02-11T01:50:02.374Z,1.89
2023-02-11T01:52:33.638Z,1.81
2023-02-11T01:55:31.938Z,1.79
2023-02-11T01:58:13.615Z,1.88
2023-02-11T02:00:41.899Z,2.06
2023-02-11T02:03:20.718Z,2.00
2023-02-11T02:05:48.154Z,1.92
2023-02-11T02:08:34.770Z,1.89
2023-02-11T02:11:11.353Z,1.99
2023-02-11T02:13:43.575Z,1.88
2023-02-11T02:16:19.754Z,1.71
2023-02-11T02:19:32.043Z,1.84
2023-02-11T02:22:34.521Z,1.69
2023-02-11T02:25:27.439Z,1.70
2023-02-11T02:28:21.668Z,2.00
2023-02-11T02:31:14.710Z,2.06
2023-02-11T02:34:23.856Z,2.08
2023-02-11T02:37:16.794Z,2.02
2023-02-11T02:39:46.030Z,1.96
2023-02-11T02:42:22.687Z,1.94
2023-02-11T02:44:53.635Z,1.90
2023-02-11T02:47:20.438Z,1.71
2023-02-11T02:49:57.403Z,1.79
2023-02-11T02:53:07.914Z,2.00
2023-02-11T02:55:57.166Z,2.00
2023-02-11T02:58:49.995Z,1.77
2023-02-11T03:01:57.699Z,1.92
2023-02-11T03:05:13.537Z,1.86
2023-02-11T03:07:55.773Z,1.81
2023-02-11T03:10:40.481Z,1.78
2023-02-11T03:13:31.021Z,1.56
2023-02-11T03:16:31.874Z,1.69
2023-02-11T03:19:30.100Z,1.59
2023-02-11T03:22:10.156Z,1.52
2023-02-11T03:24:56.503Z,1.67
2023-02-11T03:27:46.708Z,1.64
2023-02-11T03:30:21.478Z,1.59
2023-02-11T03:33:24.175Z,1.55
2023-02-11T03:36:17.113Z,1.47
2023-02-11T03:39:01.155Z,1.68
2023-02-11T03:41:38.895Z,1.58
2023-02-11T03:44:07.483Z,1.45
2023-02-11T03:46:39.663Z,1.54
2023-02-11T03:49:20.634Z,1.51
2023-02-11T03:51:51.438Z,1.58
2023-02-11T03:54:22.569Z,1.50
2023-02-11T03:56:55.321Z,1.52
2023-02-11T03:59:52.117Z,1.57
2023-02-11T04:02:24.505Z,1.54
2023-02-11T04:04:51.272Z,1.71
2023-02-11T04:07:27.311Z,1.69
2023-02-11T04:09:54.413Z,1.86
2023-02-11T04:12:21.633Z,1.75
2023-02-11T04:14:48.817Z,1.65
2023-02-11T04:17:23.040Z,1.75
2023-02-11T04:20:04.400Z,1.81
2023-02-11T04:22:31.464Z,1.64
2023-02-11T04:24:58.368Z,1.48
2023-02-11T04:27:25.915Z,1.65
2023-02-11T04:30:05.062Z,1.50
2023-02-11T04:32:42.844Z,1.54
2023-02-11T04:35:11.083Z,1.77
2023-02-11T04:37:37.709Z,1.72
2023-02-11T04:40:05.072Z,1.62
2023-02-11T04:42:32.528Z,1.72
2023-02-11T04:45:03.098Z,1.76
2023-02-11T04:47:44.059Z,1.77
2023-02-11T04:50:11.557Z,1.64
2023-02-11T04:52:41.486Z,1.72
2023-02-11T04:55:11.777Z,1.95
2023-02-11T04:57:49.987Z,2.17
2023-02-11T05:00:26.335Z,2.28
2023-02-11T05:03:01.478Z,2.23
2023-02-11T05:05:31.219Z,2.20
2023-02-11T05:07:58.096Z,2.43
2023-02-11T05:10:24.922Z,2.09
2023-02-11T05:12:56.075Z,2.02
2023-02-11T05:15:27.002Z,2.15
2023-02-11T05:17:54.284Z,2.04
2023-02-11T05:20:26.380Z,2.27
2023-02-11T05:22:56.599Z,2.24
2023-02-11T05:25:26.783Z,2.04
2023-02-11T05:27:53.667Z,1.84
2023-02-11T05:30:29.266Z,1.74
2023-02-11T05:32:56.147Z,1.64
2023-02-11T05:35:25.464Z,1.59
2023-02-11T05:38:03.800Z,1.61
2023-02-11T05:40:52.095Z,1.50
2023-02-11T05:43:39.944Z,1.65
2023-02-11T05:46:18.673Z,1.66
2023-02-11T05:48:48.444Z,1.50
2023-02-11T05:51:15.220Z,1.40
2023-02-11T05:53:42.048Z,1.42
2023-02-11T05:56:25.346Z,1.43
2023-02-11T05:58:57.039Z,1.46
2023-02-11T06:01:23.761Z,1.40
2023-02-11T06:03:51.594Z,1.38
2023-02-11T06:06:29.941Z,1.22
2023-02-11T06:08:57.817Z,1.29
2023-02-11T06:11:24.811Z,1.47
2023-02-11T06:13:59.099Z,1.78
2023-02-11T06:16:38.740Z,1.44
2023-02-11T06:19:05.469Z,1.40
2023-02-11T06:21:43.313Z,1.44
2023-02-11T06:24:38.503Z,1.39
2023-02-11T06:27:06.114Z,1.29
2023-02-11T06:29:33.475Z,1.17
2023-02-11T06:32:04.973Z,1.14
2023-02-11T06:34:31.850Z,1.18
2023-02-11T06:36:58.740Z,1.23
2023-02-11T06:39:29.955Z,1.21
2023-02-11T06:42:06.424Z,1.35
2023-02-11T06:44:34.715Z,1.20
2023-02-11T06:47:07.088Z,1.40
2023-02-11T06:49:34.044Z,1.49
2023-02-11T06:52:07.304Z,1.45
2023-02-11T06:54:34.786Z,1.41
2023-02-11T06:57:02.109Z,1.41
2023-02-11T06:59:36.199Z,1.46
2023-02-11T07:02:06.162Z,1.54
2023-02-11T07:04:38.411Z,1.74
2023-02-11T07:07:16.328Z,1.82
2023-02-11T07:09:43.464Z,1.76
2023-02-11T07:12:16.606Z,2.10
2023-02-11T07:14:49.389Z,1.97
2023-02-11T07:17:35.214Z,2.20
2023-02-11T07:20:12.745Z,2.46
2023-02-11T07:22:45.290Z,2.64
2023-02-11T07:25:22.410Z,2.87
2023-02-11T07:27:50.435Z,3.12
2023-02-11T07:30:18.587Z,3.06
2023-02-11T07:32:49.219Z,3.03
2023-02-11T07:35:17.180Z,3.17
2023-02-11T07:37:44.197Z,3.12
2023-02-11T07:40:12.879Z,3.17
2023-02-11T07:42:48.222Z,3.73
2023-02-11T07:45:17.929Z,3.79
2023-02-11T07:47:48.950Z,3.69
2023-02-11T07:50:18.616Z,3.84
2023-02-11T07:52:45.445Z,3.79
2023-02-11T07:55:12.388Z,4.21
2023-02-11T07:57:42.034Z,4.07
2023-02-11T08:00:11.680Z,4.10
2023-02-11T08:02:40.778Z,4.41
2023-02-11T08:05:07.768Z,4.37
2023-02-11T08:07:37.638Z,4.38
2023-02-11T08:10:09.089Z,4.38
2023-02-11T08:12:36.046Z,4.72
2023-02-11T08:15:02.923Z,4.84
2023-02-11T08:20:48.636Z,4.65
2023-02-11T08:23:29.278Z,4.67
2023-02-11T08:26:04.237Z,4.89
2023-02-11T08:28:31.516Z,4.85
2023-02-11T08:31:03.796Z,4.95
2023-02-11T08:33:31.317Z,4.94
2023-02-11T08:36:07.377Z,4.85
2023-02-11T08:38:38.678Z,4.94
2023-02-11T08:41:18.183Z,4.83
2023-02-11T08:43:49.646Z,4.86
2023-02-11T08:46:23.003Z,4.81
2023-02-11T08:48:56.864Z,4.97
2023-02-11T08:51:29.518Z,5.01
2023-02-11T08:56:43.203Z,5.07
2023-02-11T08:59:13.910Z,5.23
2023-02-11T09:01:58.617Z,5.55
2023-02-11T09:04:41.119Z,5.73
2023-02-11T09:07:12.241Z,5.92
2023-02-11T09:12:29.478Z,6.19
2023-02-11T09:15:08.314Z,6.22
2023-02-11T09:17:35.224Z,6.18
2023-02-11T09:20:05.125Z,6.04
2023-02-11T09:22:33.177Z,6.28
2023-02-11T09:25:03.325Z,6.39
2023-02-11T09:27:30.139Z,6.43
2023-02-11T09:30:06.655Z,6.68
2023-02-11T09:32:52.404Z,7.09
2023-02-11T09:35:19.458Z,7.01
2023-02-11T09:37:53.400Z,7.21
2023-02-11T09:40:23.030Z,7.28
2023-02-11T09:43:14.582Z,7.35
2023-02-11T09:45:52.988Z,7.30
2023-02-11T09:48:31.600Z,7.59
2023-02-11T09:51:06.960Z,7.58
2023-02-11T09:53:47.861Z,7.49
2023-02-11T09:56:24.864Z,7.70
2023-02-11T09:58:52.098Z,7.67
2023-02-11T10:01:49.298Z,7.79
2023-02-11T10:04:26.892Z,7.86
2023-02-11T10:07:03.638Z,7.93
2023-02-11T10:10:08.130Z,8.17
2023-02-11T10:12:53.556Z,8.15
2023-02-11T10:15:53.204Z,8.25
2023-02-11T10:18:57.927Z,8.24
2023-02-11T10:22:02.789Z,8.48
2023-02-11T10:24:35.331Z,8.71
2023-02-11T10:27:33.284Z,8.84
2023-02-11T10:30:19.359Z,8.84
2023-02-11T10:32:51.608Z,9.00
2023-02-11T10:38:16.502Z,9.12
2023-02-11T10:40:46.211Z,9.16
2023-02-11T10:43:29.004Z,9.09
2023-02-11T10:46:04.773Z,9.19
2023-02-11T10:48:54.325Z,9.31
2023-02-11T10:51:51.849Z,9.40
2023-02-11T10:54:37.609Z,9.54
2023-02-11T10:57:07.706Z,9.50
2023-02-11T10:59:40.514Z,9.55
2023-02-11T11:02:35.317Z,9.30
2023-02-11T11:05:21.406Z,9.33
2023-02-11T11:08:13.492Z,9.29
2023-02-11T11:11:04.042Z,9.35
2023-02-11T11:13:37.093Z,9.38
2023-02-11T11:16:30.737Z,9.44
2023-02-11T11:19:08.522Z,9.25
2023-02-11T11:21:42.923Z,9.34
2023-02-11T11:24:31.476Z,9.39
2023-02-11T11:27:04.205Z,9.54
2023-02-11T11:29:55.552Z,9.47
2023-02-11T11:32:33.875Z,9.49
2023-02-11T11:38:33.353Z,8.98
2023-02-11T11:41:23.447Z,8.95
2023-02-11T11:44:30.716Z,9.19
2023-02-11T11:47:27.445Z,9.27
2023-02-11T11:50:02.257Z,9.26
2023-02-11T11:52:54.454Z,9.42
2023-02-11T11:55:33.051Z,9.41
2023-02-11T11:58:02.731Z,9.40
2023-02-11T12:00:43.090Z,9.67
2023-02-11T12:03:31.194Z,9.71
2023-02-11T12:06:25.328Z,9.88
2023-02-11T12:08:58.567Z,9.64
2023-02-11T12:11:47.638Z,9.76
2023-02-11T12:14:39.493Z,9.85
2023-02-11T12:17:50.948Z,9.95
2023-02-11T12:20:33.275Z,9.91
2023-02-11T12:23:18.944Z,9.89
2023-02-11T12:25:58.470Z,9.82
2023-02-11T12:29:10.477Z,10.00
2023-02-11T12:32:24.875Z,10.02
2023-02-11T12:35:19.093Z,9.84
2023-02-11T12:38:08.544Z,10.01
2023-02-11T12:41:02.206Z,10.04
2023-02-11T12:43:46.191Z,10.15
2023-02-11T12:46:39.109Z,10.07
2023-02-11T12:49:47.419Z,10.32
2023-02-11T12:52:47.925Z,10.28
2023-02-11T12:55:57.292Z,10.31
2023-02-11T12:58:45.723Z,10.26
2023-02-11T13:01:46.532Z,10.29
2023-02-11T13:04:56.219Z,10.09
2023-02-11T13:07:56.776Z,10.00
2023-02-11T13:10:37.820Z,10.11
2023-02-11T13:13:19.462Z,10.22
2023-02-11T13:15:58.287Z,10.21
2023-02-11T13:18:56.028Z,10.28
2023-02-11T13:21:54.683Z,10.16
2023-02-11T13:24:51.986Z,10.26
2023-02-11T13:27:38.751Z,10.32
2023-02-11T13:30:45.507Z,10.39
2023-02-11T13:33:35.786Z,10.45
2023-02-11T13:36:23.724Z,10.48
2023-02-11T13:39:12.665Z,10.59
2023-02-11T13:41:52.919Z,10.60
2023-02-11T13:44:28.513Z,10.56
2023-02-11T13:47:17.997Z,10.57
2023-02-11T13:50:00.718Z,10.49
2023-02-11T13:52:31.909Z,10.35
2023-02-11T13:55:25.518Z,10.37
2023-02-11T13:58:36.125Z,10.46
2023-02-11T14:01:41.626Z,10.42
2023-02-11T14:04:45.495Z,10.30
2023-02-11T14:07:48.928Z,10.23
2023-02-11T14:10:45.802Z,10.22
2023-02-11T14:13:34.874Z,10.17
2023-02-11T14:16:36.336Z,10.16
2023-02-11T14:19:06.941Z,10.14
2023-02-11T14:21:41.854Z,10.24
2023-02-11T14:24:13.268Z,10.35
2023-02-11T14:27:23.640Z,10.53
2023-02-11T14:30:24.610Z,10.57
2023-02-11T14:33:44.143Z,10.58
2023-02-11T14:36:40.864Z,10.51
2023-02-11T14:39:31.620Z,10.46
2023-02-11T14:42:07.588Z,10.43
2023-02-11T14:44:37.732Z,10.33
2023-02-11T14:47:19.179Z,10.37
2023-02-11T14:49:47.729Z,10.27
2023-02-11T14:52:41.808Z,10.31
2023-02-11T14:55:34.472Z,10.35
2023-02-11T14:58:27.428Z,10.31
2023-02-11T15:01:06.536Z,10.27
2023-02-11T15:03:41.661Z,10.24
2023-02-11T15:06:31.394Z,10.42
2023-02-11T15:09:13.492Z,10.34
2023-02-11T15:11:43.299Z,10.37
2023-02-11T15:14:19.190Z,10.35
2023-02-11T15:16:47.828Z,10.25
2023-02-11T15:19:28.631Z,10.38
2023-02-11T15:21:59.750Z,10.34
2023-02-11T15:24:29.817Z,10.35
2023-02-11T15:27:21.073Z,10.30
2023-02-11T15:29:56.364Z,10.15
2023-02-11T15:32:36.887Z,10.15
2023-02-11T15:35:10.114Z,10.38
2023-02-11T15:37:37.137Z,10.53
2023-02-11T15:40:23.003Z,10.48
2023-02-11T15:42:58.342Z,10.50
2023-02-11T15:45:35.431Z,10.40
2023-02-11T15:48:12.934Z,10.35
2023-02-11T15:50:42.294Z,10.37
2023-02-11T15:53:27.399Z,10.12
2023-02-11T15:56:22.248Z,10.26
2023-02-11T15:59:19.321Z,10.21
2023-02-11T16:01:48.595Z,10.18
2023-02-11T16:04:22.079Z,10.07
2023-02-11T16:06:51.155Z,9.91
2023-02-11T16:09:41.431Z,10.00
2023-02-11T16:15:47.030Z,9.70
2023-02-11T16:18:28.461Z,9.77
2023-02-11T16:21:02.670Z,9.71
2023-02-11T16:23:34.847Z,9.41
2023-02-11T16:26:12.652Z,9.26
2023-02-11T16:28:46.691Z,9.27
2023-02-11T16:31:13.869Z,9.22
2023-02-11T16:33:43.193Z,9.04
2023-02-11T16:36:18.195Z,8.79
2023-02-11T16:38:45.093Z,8.57
2023-02-11T16:41:20.579Z,8.55
2023-02-11T16:43:53.162Z,8.39
2023-02-11T16:46:20.279Z,8.29
2023-02-11T16:48:47.153Z,8.20
2023-02-11T16:51:18.817Z,8.02
2023-02-11T16:53:45.989Z,8.01
2023-02-11T16:56:19.476Z,8.06
2023-02-11T16:59:03.382Z,7.95
2023-02-11T17:01:36.489Z,7.95
2023-02-11T17:04:04.711Z,7.92
2023-02-11T17:06:32.005Z,7.80
2023-02-11T17:09:00.482Z,7.74
2023-02-11T17:11:29.775Z,7.74
2023-02-11T17:14:05.326Z,7.74
2023-02-11T17:16:36.330Z,7.60
2023-02-11T17:19:07.132Z,7.58
2023-02-11T17:21:34.173Z,7.69
2023-02-11T17:24:01.547Z,7.60
2023-02-11T17:29:12.155Z,7.45
2023-02-11T17:31:47.051Z,7.41
2023-02-11T17:34:22.971Z,7.44
2023-02-11T17:37:00.356Z,7.45
2023-02-11T17:39:27.904Z,7.24
2023-02-11T17:41:54.794Z,7.26
2023-02-11T17:44:22.016Z,7.28
2023-02-11T17:47:03.150Z,7.14
2023-02-11T17:49:34.030Z,7.05
2023-02-11T17:52:01.402Z,7.63
2023-02-11T17:54:33.384Z,7.28
2023-02-11T17:57:00.345Z,7.08
2023-02-11T17:59:31.887Z,7.00
2023-02-11T18:02:05.534Z,6.85
2023-02-11T18:04:34.247Z,6.81
2023-02-11T18:07:20.318Z,6.68
2023-02-11T18:09:49.860Z,6.85
2023-02-11T18:12:31.395Z,6.92
2023-02-11T18:14:58.417Z,6.87
2023-02-11T18:17:25.653Z,6.82
2023-02-11T18:20:00.744Z,6.65
2023-02-11T18:22:38.736Z,6.72
2023-02-11T18:25:13.350Z,6.48
2023-02-11T18:27:51.822Z,6.27
2023-02-11T18:30:48.459Z,6.33
2023-02-11T18:33:28.213Z,6.43
2023-02-11T18:35:57.743Z,6.27
2023-02-11T18:38:44.565Z,6.34
2023-02-11T18:41:36.639Z,6.29
2023-02-11T18:44:28.748Z,6.22
2023-02-11T18:47:07.813Z,6.22
2023-02-11T18:49:43.536Z,6.24
2023-02-11T18:52:21.489Z,6.08
2023-02-11T18:54:52.483Z,6.10
2023-02-11T18:57:31.272Z,6.20
2023-02-11T19:00:08.061Z,6.24
2023-02-11T19:02:49.151Z,6.13
2023-02-11T19:05:16.734Z,6.06
2023-02-11T19:07:47.156Z,5.87
2023-02-11T19:10:14.303Z,6.21
2023-02-11T19:12:42.188Z,6.42
2023-02-11T19:15:09.288Z,6.64
2023-02-11T19:17:41.484Z,6.65
2023-02-11T19:20:09.219Z,6.51
2023-02-11T19:22:41.829Z,6.55
2023-02-11T19:25:08.636Z,6.33
2023-02-11T19:27:53.343Z,6.52
2023-02-11T19:30:20.831Z,6.97
2023-02-11T19:32:53.345Z,7.09
2023-02-11T19:35:22.626Z,7.31
2023-02-11T19:37:54.839Z,7.11
2023-02-11T19:40:21.695Z,6.88
2023-02-11T19:42:51.416Z,6.34
2023-02-11T19:45:20.580Z,6.21
2023-02-11T19:47:47.440Z,5.90
2023-02-11T19:50:14.423Z,5.79
2023-02-11T19:52:41.291Z,5.74
2023-02-11T19:55:08.732Z,6.27
2023-02-11T19:57:59.693Z,6.93
2023-02-11T20:00:26.651Z,6.34
2023-02-11T20:02:53.581Z,6.37
2023-02-11T20:05:20.424Z,6.02
2023-02-11T20:07:59.661Z,6.39
2023-02-11T20:10:33.614Z,6.45
2023-02-11T20:13:06.625Z,6.59
2023-02-11T20:15:34.612Z,6.47
2023-02-11T20:18:02.078Z,6.09
2023-02-11T20:20:28.881Z,6.04
2023-02-11T20:22:55.765Z,5.85
2023-02-11T20:25:22.725Z,5.67
2023-02-11T20:27:51.254Z,5.64
2023-02-11T20:30:28.555Z,5.47
2023-02-11T20:33:01.762Z,5.20
2023-02-11T20:35:28.723Z,5.14
2023-02-11T20:37:56.288Z,5.27
2023-02-11T20:40:28.260Z,5.51
2023-02-11T20:42:57.003Z,5.31
2023-02-11T20:45:25.001Z,5.82
2023-02-11T20:48:01.901Z,6.08
2023-02-11T20:50:30.018Z,5.65
2023-02-11T20:53:10.493Z,5.52
2023-02-11T20:55:40.574Z,5.31
2023-02-11T20:58:08.369Z,5.19
2023-02-11T21:00:38.436Z,5.07
2023-02-11T21:03:10.927Z,5.00
2023-02-11T21:05:39.364Z,5.13
2023-02-11T21:08:08.081Z,5.10
2023-02-11T21:10:38.863Z,5.29
2023-02-11T21:13:05.953Z,5.27
2023-02-11T21:15:32.902Z,5.49
2023-02-11T21:18:02.964Z,5.63
2023-02-11T21:20:40.388Z,5.45
2023-02-11T21:23:12.268Z,5.65
2023-02-11T21:25:40.475Z,5.53
2023-02-11T21:28:13.867Z,5.40
2023-02-11T21:30:44.938Z,5.19
2023-02-11T21:33:13.230Z,5.19
2023-02-11T21:35:43.227Z,5.18
2023-02-11T21:38:18.708Z,5.19
2023-02-11T21:40:46.373Z,5.13
2023-02-11T21:43:34.736Z,5.16
2023-02-11T21:46:41.290Z,5.20
2023-02-11T21:49:12.701Z,5.12
2023-02-11T21:51:48.780Z,5.35
2023-02-11T21:54:19.184Z,5.95
2023-02-11T21:56:55.173Z,5.59
2023-02-11T21:59:45.738Z,5.28
2023-02-11T22:02:24.341Z,5.05
2023-02-11T22:04:57.829Z,4.89
2023-02-11T22:07:31.029Z,4.75
2023-02-11T22:10:01.046Z,5.16
2023-02-11T22:12:37.886Z,5.48
2023-02-11T22:15:05.902Z,5.55
2023-02-11T22:17:34.687Z,5.88
2023-02-11T22:20:12.448Z,6.66
2023-02-11T22:22:49.976Z,6.69
2023-02-11T22:25:29.198Z,5.86
2023-02-11T22:27:57.078Z,5.40
2023-02-11T22:30:52.689Z,5.10
2023-02-11T22:33:26.011Z,5.20
2023-02-11T22:36:09.001Z,5.20
2023-02-11T22:38:40.136Z,5.24
2023-02-11T22:41:11.364Z,5.04
2023-02-11T22:43:38.988Z,4.71
2023-02-11T22:46:15.674Z,4.78
2023-02-11T22:49:17.690Z,4.80
2023-02-11T22:51:49.792Z,4.67
2023-02-11T22:54:40.081Z,4.56
2023-02-11T22:57:06.921Z,4.49
2023-02-11T22:59:39.803Z,4.41
2023-02-11T23:02:10.077Z,4.35
2023-02-11T23:04:37.261Z,4.36
2023-02-11T23:07:09.329Z,4.42
2023-02-11T23:09:45.189Z,4.39
2023-02-11T23:12:15.182Z,4.48
2023-02-11T23:14:45.046Z,4.85
2023-02-11T23:17:12.033Z,4.49
2023-02-11T23:19:48.591Z,4.46
2023-02-11T23:22:23.837Z,4.29
2023-02-11T23:24:50.868Z,4.42
2023-02-11T23:27:29.506Z,4.35
2023-02-11T23:32:53.322Z,4.51
2023-02-11T23:35:44.958Z,4.77
2023-02-11T23:38:19.536Z,4.69
2023-02-11T23:40:46.616Z,4.48
2023-02-11T23:43:17.944Z,4.55
2023-02-11T23:48:31.145Z,4.45
2023-02-11T23:51:03.498Z,4.27
2023-02-11T23:53:45.385Z,4.14
2023-02-11T23:56:27.671Z,4.58
2023-02-11T23:58:57.465Z,4.45
